createdAt,value
2023-04-18T00:00:59.746Z,74.35
2023-04-18T00:03:30.648Z,74.31
2023-04-18T00:06:01.825Z,74.26
2023-04-18T00:08:31.587Z,74.37
2023-04-18T00:11:01.328Z,74.34
2023-04-18T00:13:30.790Z,74.42
2023-04-18T00:16:00.121Z,74.45
2023-04-18T00:18:29.424Z,74.39
2023-04-18T00:20:58.951Z,74.33
2023-04-18T00:23:29.759Z,74.23
2023-04-18T00:26:00.276Z,74.04
2023-04-18T00:28:29.675Z,73.98
2023-04-18T00:31:01.864Z,74.17
2023-04-18T00:33:31.409Z,74.19
2023-04-18T00:36:00.730Z,74.15
2023-04-18T00:38:32.166Z,74.20
2023-04-18T00:41:01.845Z,74.01
2023-04-18T00:43:32.250Z,73.97
2023-04-18T00:46:03.610Z,73.85
2023-04-18T00:48:33.351Z,73.87
2023-04-18T00:51:02.719Z,73.90
2023-04-18T00:53:36.506Z,73.79
2023-04-18T00:56:08.717Z,73.86
2023-04-18T00:58:40.274Z,73.69
2023-04-18T01:01:10.286Z,73.57
2023-04-18T01:03:41.166Z,73.44
2023-04-18T01:06:11.125Z,73.41
2023-04-18T01:08:40.782Z,73.50
2023-04-18T01:11:09.997Z,73.55
2023-04-18T01:13:39.989Z,73.44
2023-04-18T01:16:10.749Z,73.36
2023-04-18T01:18:40.566Z,73.38
2023-04-18T01:21:10.835Z,73.37
2023-04-18T01:23:50.258Z,73.37
2023-04-18T01:26:19.628Z,73.16
2023-04-18T01:28:49.032Z,73.28
2023-04-18T01:31:19.801Z,73.35
2023-04-18T01:33:49.376Z,73.39
2023-04-18T01:36:19.752Z,73.50
2023-04-18T01:38:52.879Z,73.38
2023-04-18T01:41:23.415Z,73.15
2023-04-18T01:43:53.944Z,73.10
2023-04-18T01:46:24.476Z,73.16
2023-04-18T01:48:55.188Z,73.14
2023-04-18T01:51:27.884Z,73.02
2023-04-18T01:54:00.885Z,72.83
2023-04-18T01:56:31.133Z,72.84
2023-04-18T01:59:00.355Z,72.72
2023-04-18T02:01:30.092Z,72.74
2023-04-18T02:03:59.786Z,72.70
2023-04-18T02:06:29.518Z,72.63
2023-04-18T02:08:58.730Z,72.65
2023-04-18T02:11:28.233Z,72.64
2023-04-18T02:13:59.040Z,72.67
2023-04-18T02:16:28.801Z,72.67
2023-04-18T02:18:58.111Z,72.51
2023-04-18T02:21:29.960Z,72.44
2023-04-18T02:23:59.359Z,72.31
2023-04-18T02:26:28.648Z,72.27
2023-04-18T02:28:58.824Z,72.24
2023-04-18T02:31:29.289Z,72.07
2023-04-18T02:33:58.815Z,72.25
2023-04-18T02:36:28.134Z,72.30
2023-04-18T02:38:57.787Z,72.36
2023-04-18T02:41:27.044Z,72.41
2023-04-18T02:43:57.642Z,72.21
2023-04-18T02:46:27.363Z,72.23
2023-04-18T02:48:56.878Z,72.19
2023-04-18T02:51:27.675Z,72.19
2023-04-18T02:53:57.479Z,72.34
2023-04-18T02:56:26.817Z,72.38
2023-04-18T02:58:57.375Z,72.51
2023-04-18T03:01:26.779Z,72.30
2023-04-18T03:03:57.377Z,72.32
2023-04-18T03:06:27.233Z,72.23
2023-04-18T03:08:56.962Z,72.16
2023-04-18T03:11:26.951Z,72.37
2023-04-18T03:13:57.854Z,72.32
2023-04-18T03:16:28.898Z,72.36
2023-04-18T03:19:01.857Z,72.33
2023-04-18T03:21:31.468Z,72.31
2023-04-18T03:24:02.096Z,72.24
2023-04-18T03:26:32.610Z,72.13
2023-04-18T03:29:02.812Z,72.11
2023-04-18T03:31:33.431Z,72.15
2023-04-18T03:34:05.501Z,72.07
2023-04-18T03:36:39.205Z,72.23
2023-04-18T03:39:08.616Z,72.25
2023-04-18T03:41:38.127Z,72.30
2023-04-18T03:44:08.535Z,72.04
2023-04-18T03:46:38.727Z,71.99
2023-04-18T03:49:09.597Z,72.11
2023-04-18T03:51:47.112Z,72.83
2023-04-18T03:54:16.986Z,72.69
2023-04-18T03:56:46.551Z,72.72
2023-04-18T03:59:16.369Z,72.28
2023-04-18T04:01:46.231Z,71.96
2023-04-18T04:04:16.388Z,71.61
2023-04-18T04:06:46.696Z,71.60
2023-04-18T04:09:16.008Z,71.71
2023-04-18T04:11:45.871Z,71.18
2023-04-18T04:14:15.962Z,70.51
2023-04-18T04:16:47.240Z,70.26
2023-04-18T04:19:21.981Z,70.31
2023-04-18T04:21:53.654Z,70.13
2023-04-18T04:24:23.692Z,70.15
2023-04-18T04:26:53.804Z,69.74
2023-04-18T04:29:24.418Z,69.46
2023-04-18T04:31:55.063Z,69.63
2023-04-18T04:34:25.450Z,69.77
2023-04-18T04:36:55.950Z,69.35
2023-04-18T04:39:28.055Z,68.94
2023-04-18T04:41:57.861Z,68.73
2023-04-18T04:44:27.808Z,68.73
2023-04-18T04:46:57.896Z,68.52
2023-04-18T04:49:28.443Z,68.40
2023-04-18T04:52:00.131Z,67.93
2023-04-18T04:54:35.742Z,67.98
2023-04-18T04:57:05.577Z,68.15
2023-04-18T04:59:35.451Z,68.02
2023-04-18T05:02:06.024Z,68.12
2023-04-18T05:04:36.091Z,68.09
2023-04-18T05:07:05.740Z,67.90
2023-04-18T05:09:39.568Z,67.86
2023-04-18T05:12:10.780Z,67.66
2023-04-18T05:14:47.934Z,67.68
2023-04-18T05:17:17.136Z,67.93
2023-04-18T05:19:47.413Z,67.92
2023-04-18T05:22:16.696Z,67.66
2023-04-18T05:24:46.477Z,67.54
2023-04-18T05:27:18.006Z,67.58
2023-04-18T05:29:49.710Z,67.61
2023-04-18T05:32:19.360Z,67.66
2023-04-18T05:34:50.656Z,67.68
2023-04-18T05:37:19.886Z,67.67
2023-04-18T05:39:49.006Z,67.46
2023-04-18T05:42:18.610Z,67.26
2023-04-18T05:44:50.727Z,67.23
2023-04-18T05:47:20.793Z,67.21
2023-04-18T05:49:50.946Z,67.31
2023-04-18T05:52:21.238Z,66.99
2023-04-18T05:54:55.603Z,67.09
2023-04-18T05:57:35.760Z,67.04
2023-04-18T06:00:12.113Z,66.82
2023-04-18T06:03:27.208Z,67.01
2023-04-18T06:05:55.510Z,66.92
2023-04-18T06:08:37.455Z,66.41
2023-04-18T06:11:08.432Z,66.44
2023-04-18T06:13:42.725Z,66.79
2023-04-18T06:16:12.813Z,66.69
2023-04-18T06:18:42.947Z,66.80
2023-04-18T06:21:21.879Z,66.82
2023-04-18T06:23:51.277Z,66.72
2023-04-18T06:26:24.230Z,66.81
2023-04-18T06:28:55.531Z,66.74
2023-04-18T06:31:26.092Z,66.63
2023-04-18T06:33:57.010Z,66.57
2023-04-18T06:36:28.051Z,66.56
2023-04-18T06:38:57.633Z,66.54
2023-04-18T06:41:27.577Z,66.37
2023-04-18T06:45:01.166Z,66.40
2023-04-18T06:47:55.116Z,65.99
2023-04-18T06:50:33.329Z,65.80
2023-04-18T06:53:07.103Z,65.68
2023-04-18T06:55:45.097Z,65.25
2023-04-18T06:58:18.537Z,65.19
2023-04-18T07:00:51.345Z,65.06
2023-04-18T07:03:20.687Z,64.67
2023-04-18T07:05:50.364Z,64.81
2023-04-18T07:08:19.886Z,65.15
2023-04-18T07:10:49.253Z,65.13
2023-04-18T07:13:18.538Z,65.08
2023-04-18T07:15:47.982Z,64.29
2023-04-18T07:18:30.163Z,64.08
2023-04-18T07:21:06.712Z,64.48
2023-04-18T07:23:36.313Z,64.67
2023-04-18T07:26:06.525Z,64.63
2023-04-18T07:28:35.931Z,64.40
2023-04-18T07:31:10.560Z,64.03
2023-04-18T07:33:40.571Z,63.33
2023-04-18T07:36:10.511Z,63.26
2023-04-18T07:38:40.683Z,62.51
2023-04-18T07:41:10.116Z,62.44
2023-04-18T07:43:39.923Z,62.43
2023-04-18T07:46:09.356Z,62.15
2023-04-18T07:48:38.956Z,62.18
2023-04-18T07:51:11.098Z,62.10
2023-04-18T07:53:41.082Z,61.93
2023-04-18T07:56:11.925Z,61.87
2023-04-18T07:58:41.205Z,61.72
2023-04-18T08:01:13.767Z,61.78
2023-04-18T08:03:44.583Z,61.44
2023-04-18T08:06:14.920Z,61.45
2023-04-18T08:08:44.243Z,61.03
2023-04-18T08:11:13.875Z,60.77
2023-04-18T08:13:46.438Z,60.62
2023-04-18T08:16:17.443Z,59.92
2023-04-18T08:18:47.068Z,59.70
2023-04-18T08:21:16.361Z,59.53
2023-04-18T08:23:45.558Z,59.30
2023-04-18T08:26:15.038Z,59.40
2023-04-18T08:28:46.542Z,59.15
2023-04-18T08:31:17.018Z,58.55
2023-04-18T08:33:46.434Z,58.56
2023-04-18T08:36:16.213Z,58.68
2023-04-18T08:38:46.240Z,57.76
2023-04-18T08:41:26.213Z,57.54
2023-04-18T08:43:57.198Z,57.69
2023-04-18T08:46:29.651Z,57.86
2023-04-18T08:49:00.168Z,58.13
2023-04-18T08:51:32.872Z,57.94
2023-04-18T08:54:04.033Z,58.03
2023-04-18T08:57:05.813Z,57.46
2023-04-18T08:59:35.567Z,57.27
2023-04-18T09:02:08.434Z,57.94
2023-04-18T09:04:40.338Z,57.94
2023-04-18T09:07:11.442Z,57.56
2023-04-18T09:09:59.073Z,57.03
2023-04-18T09:12:50.577Z,57.51
2023-04-18T09:15:23.180Z,57.89
2023-04-18T09:17:55.750Z,57.54
2023-04-18T09:20:33.937Z,57.63
2023-04-18T09:23:05.044Z,57.68
2023-04-18T09:25:39.084Z,57.45
2023-04-18T09:28:26.521Z,56.75
2023-04-18T09:31:16.984Z,56.76
2023-04-18T09:33:56.142Z,56.27
2023-04-18T09:36:28.424Z,56.07
2023-04-18T09:38:58.160Z,56.39
2023-04-18T09:41:30.235Z,56.55
2023-04-18T09:44:14.343Z,56.15
2023-04-18T09:46:47.158Z,55.18
2023-04-18T09:49:20.897Z,54.69
2023-04-18T09:51:54.970Z,55.41
2023-04-18T09:54:30.245Z,55.53
2023-04-18T09:57:00.930Z,55.45
2023-04-18T09:59:38.057Z,55.55
2023-04-18T10:02:15.691Z,55.68
2023-04-18T10:04:49.508Z,55.55
2023-04-18T10:07:20.205Z,55.63
2023-04-18T10:09:51.346Z,55.76
2023-04-18T10:12:23.777Z,55.29
2023-04-18T10:14:55.932Z,55.17
2023-04-18T10:17:29.382Z,55.14
2023-04-18T10:20:08.061Z,54.54
2023-04-18T10:22:38.872Z,54.32
2023-04-18T10:25:09.816Z,53.89
2023-04-18T10:28:06.145Z,54.20
2023-04-18T10:30:56.711Z,53.86
2023-04-18T10:33:33.578Z,52.72
2023-04-18T10:36:19.612Z,52.65
2023-04-18T10:38:50.849Z,52.75
2023-04-18T10:41:29.156Z,52.57
2023-04-18T10:44:27.940Z,52.61
2023-04-18T10:47:22.306Z,52.74
2023-04-18T10:50:01.037Z,52.77
2023-04-18T10:52:31.467Z,52.45
2023-04-18T10:55:11.372Z,52.03
2023-04-18T10:57:43.201Z,52.48
2023-04-18T11:00:15.553Z,52.07
2023-04-18T11:02:55.116Z,52.46
2023-04-18T11:05:40.852Z,52.68
2023-04-18T11:08:24.129Z,52.11
2023-04-18T11:10:59.462Z,52.03
2023-04-18T11:13:31.456Z,51.67
2023-04-18T11:16:00.812Z,51.63
2023-04-18T11:18:41.210Z,51.88
2023-04-18T11:21:10.818Z,51.66
2023-04-18T11:23:43.892Z,51.28
2023-04-18T11:26:17.049Z,51.48
2023-04-18T11:28:52.956Z,51.30
2023-04-18T11:31:25.074Z,51.33
2023-04-18T11:33:58.145Z,51.48
2023-04-18T11:36:28.815Z,51.27
2023-04-18T11:38:58.969Z,51.47
2023-04-18T11:41:30.442Z,50.76
2023-04-18T11:44:01.016Z,51.10
2023-04-18T11:46:39.834Z,51.14
2023-04-18T11:49:24.349Z,50.62
2023-04-18T11:51:56.205Z,50.19
2023-04-18T11:54:41.818Z,50.71
2023-04-18T11:57:22.302Z,50.55
2023-04-18T11:59:57.290Z,50.28
2023-04-18T12:02:41.760Z,50.88
2023-04-18T12:05:13.996Z,50.61
2023-04-18T12:07:45.416Z,50.73
2023-04-18T12:10:27.093Z,50.88
2023-04-18T12:13:03.077Z,50.58
2023-04-18T12:15:33.083Z,50.20
2023-04-18T12:18:04.406Z,50.49
2023-04-18T12:20:39.059Z,50.30
2023-04-18T12:23:09.011Z,50.30
2023-04-18T12:25:40.022Z,50.43
2023-04-18T12:28:17.064Z,49.79
2023-04-18T12:30:46.371Z,49.97
2023-04-18T12:33:15.815Z,50.28
2023-04-18T12:35:46.412Z,50.02
2023-04-18T12:38:19.607Z,49.95
2023-04-18T12:40:50.165Z,50.10
2023-04-18T12:43:25.327Z,49.79
2023-04-18T12:45:55.313Z,49.77
2023-04-18T12:48:27.151Z,49.92
2023-04-18T12:50:57.207Z,49.73
2023-04-18T12:53:27.939Z,49.97
2023-04-18T12:56:00.787Z,50.26
2023-04-18T12:58:31.917Z,50.19
2023-04-18T13:01:01.721Z,50.17
2023-04-18T13:03:36.331Z,50.11
2023-04-18T13:06:07.621Z,50.20
2023-04-18T13:08:42.029Z,50.10
2023-04-18T13:11:12.022Z,50.16
2023-04-18T13:13:42.211Z,50.17
2023-04-18T13:16:13.078Z,50.26
2023-04-18T13:18:42.822Z,50.21
2023-04-18T13:21:12.738Z,50.21
2023-04-18T13:23:43.011Z,50.14
2023-04-18T13:26:12.360Z,49.78
2023-04-18T13:28:41.849Z,50.04
2023-04-18T13:31:11.419Z,50.25
2023-04-18T13:33:41.554Z,50.25
2023-04-18T13:36:11.055Z,50.41
2023-04-18T13:38:40.976Z,50.27
2023-04-18T13:41:13.346Z,50.33
2023-04-18T13:43:47.241Z,50.13
2023-04-18T13:46:26.188Z,50.38
2023-04-18T13:49:11.793Z,50.42
2023-04-18T13:51:43.526Z,50.32
2023-04-18T13:54:15.532Z,50.68
2023-04-18T13:56:45.124Z,50.67
2023-04-18T13:59:14.913Z,50.80
2023-04-18T14:01:44.524Z,50.79
2023-04-18T14:04:14.460Z,50.93
2023-04-18T14:06:46.496Z,50.97
2023-04-18T14:09:19.370Z,50.89
2023-04-18T14:11:50.611Z,50.94
2023-04-18T14:14:20.982Z,50.89
2023-04-18T14:16:53.383Z,50.89
2023-04-18T14:19:23.317Z,51.05
2023-04-18T14:21:52.801Z,50.94
2023-04-18T14:24:24.075Z,51.06
2023-04-18T14:26:53.397Z,51.02
2023-04-18T14:29:22.711Z,51.05
2023-04-18T14:31:53.907Z,50.94
2023-04-18T14:34:37.407Z,50.86
2023-04-18T14:37:11.683Z,50.85
2023-04-18T14:39:43.189Z,51.14
2023-04-18T14:42:12.498Z,51.04
2023-04-18T14:44:41.440Z,50.99
2023-04-18T14:47:10.035Z,51.25
2023-04-18T14:49:38.430Z,51.47
2023-04-18T14:52:07.238Z,51.37
2023-04-18T14:54:35.389Z,51.47
2023-04-18T14:57:04.007Z,51.36
2023-04-18T14:59:32.521Z,51.41
2023-04-18T15:02:01.754Z,51.11
2023-04-18T15:04:31.780Z,51.27
2023-04-18T15:07:01.986Z,51.41
2023-04-18T15:09:31.267Z,51.41
2023-04-18T15:12:01.040Z,51.38
2023-04-18T15:14:32.300Z,51.43
2023-04-18T15:17:03.207Z,51.34
2023-04-18T15:19:33.012Z,51.60
2023-04-18T15:22:01.787Z,51.67
2023-04-18T15:24:32.048Z,51.61
2023-04-18T15:27:12.392Z,51.58
2023-04-18T15:29:44.287Z,51.40
2023-04-18T15:32:13.807Z,51.30
2023-04-18T15:34:43.203Z,51.27
2023-04-18T15:37:14.896Z,51.42
2023-04-18T15:39:43.744Z,51.45
2023-04-18T15:42:12.096Z,51.20
2023-04-18T15:44:41.651Z,51.23
2023-04-18T15:47:14.363Z,50.94
2023-04-18T15:49:43.377Z,50.74
2023-04-18T15:52:14.834Z,50.93
2023-04-18T15:54:43.718Z,50.79
2023-04-18T15:57:18.855Z,50.69
2023-04-18T15:59:55.593Z,50.10
2023-04-18T16:02:24.014Z,49.80
2023-04-18T16:04:53.148Z,49.38
2023-04-18T16:07:21.604Z,48.92
2023-04-18T16:09:54.042Z,48.95
2023-04-18T16:12:22.633Z,49.11
2023-04-18T16:14:50.826Z,49.23
2023-04-18T16:17:20.466Z,49.46
2023-04-18T16:19:48.626Z,49.62
2023-04-18T16:22:18.184Z,49.64
2023-04-18T16:24:47.228Z,49.42
2023-04-18T16:27:15.831Z,49.56
2023-04-18T16:29:45.736Z,49.71
2023-04-18T16:32:15.439Z,49.93
2023-04-18T16:34:46.116Z,50.08
2023-04-18T16:37:14.143Z,50.17
2023-04-18T16:39:42.402Z,50.19
2023-04-18T16:42:14.081Z,50.35
2023-04-18T16:44:46.808Z,50.42
2023-04-18T16:47:14.991Z,50.51
2023-04-18T16:49:44.273Z,50.59
2023-04-18T16:52:12.519Z,50.54
2023-04-18T16:54:40.932Z,50.74
2023-04-18T16:57:10.233Z,50.96
2023-04-18T16:59:38.497Z,50.84
2023-04-18T17:02:07.426Z,51.09
2023-04-18T17:04:36.386Z,51.17
2023-04-18T17:07:04.661Z,51.17
2023-04-18T17:09:33.215Z,51.31
2023-04-18T17:12:02.744Z,51.36
2023-04-18T17:14:31.883Z,51.55
2023-04-18T17:17:02.693Z,51.88
2023-04-18T17:19:31.425Z,51.87
2023-04-18T17:21:59.771Z,52.03
2023-04-18T17:24:28.538Z,52.09
2023-04-18T17:26:57.412Z,52.42
2023-04-18T17:29:26.598Z,52.42
2023-04-18T17:31:55.314Z,52.54
2023-04-18T17:34:24.043Z,52.70
2023-04-18T17:36:52.784Z,52.84
2023-04-18T17:39:21.177Z,52.94
2023-04-18T17:41:50.301Z,52.99
2023-04-18T17:44:21.323Z,53.08
2023-04-18T17:46:50.861Z,53.32
2023-04-18T17:49:21.270Z,53.53
2023-04-18T17:51:49.537Z,53.45
2023-04-18T17:54:17.679Z,53.44
2023-04-18T17:56:46.392Z,53.62
2023-04-18T17:59:14.729Z,53.76
2023-04-18T18:01:53.425Z,53.85
2023-04-18T18:04:26.359Z,54.02
2023-04-18T18:06:56.988Z,54.16
2023-04-18T18:09:30.761Z,54.23
2023-04-18T18:12:00.014Z,54.23
2023-04-18T18:14:33.348Z,54.33
2023-04-18T18:17:41.693Z,54.38
2023-04-18T18:20:23.895Z,54.57
2023-04-18T18:23:03.928Z,54.63
2023-04-18T18:25:58.923Z,54.65
2023-04-18T18:28:49.594Z,54.77
2023-04-18T18:31:25.627Z,54.80
2023-04-18T18:34:00.416Z,54.94
2023-04-18T18:37:10.341Z,54.97
2023-04-18T18:39:49.603Z,54.96
2023-04-18T18:42:42.255Z,55.04
2023-04-18T18:45:20.599Z,55.12
2023-04-18T18:47:50.941Z,55.19
2023-04-18T18:50:21.871Z,55.26
2023-04-18T18:52:55.305Z,55.21
2023-04-18T18:55:23.970Z,55.21
2023-04-18T18:57:57.009Z,55.30
2023-04-18T19:00:55.696Z,55.26
2023-04-18T19:03:59.431Z,55.42
2023-04-18T19:06:46.112Z,55.45
2023-04-18T19:11:05.747Z,55.42
2023-04-18T19:13:11.282Z,55.49
2023-04-18T19:15:43.051Z,55.53
2023-04-18T19:18:19.286Z,55.55
2023-04-18T19:20:52.749Z,55.49
2023-04-18T19:23:42.379Z,55.66
2023-04-18T19:26:54.648Z,55.61
2023-04-18T19:29:39.846Z,55.64
2023-04-18T19:32:29.946Z,55.82
2023-04-18T19:35:29.117Z,55.72
2023-04-18T19:38:01.801Z,55.68
2023-04-18T19:41:00.784Z,55.67
2023-04-18T19:43:36.347Z,55.71
2023-04-18T19:46:28.653Z,55.65
2023-04-18T19:48:57.261Z,55.67
2023-04-18T19:51:29.135Z,55.65
2023-04-18T19:54:03.224Z,55.67
2023-04-18T19:56:35.953Z,55.76
2023-04-18T19:59:09.268Z,55.76
2023-04-18T20:02:00.276Z,55.76
2023-04-18T20:05:08.114Z,55.82
2023-04-18T20:08:02.820Z,55.83
2023-04-18T20:10:57.034Z,55.83
2023-04-18T20:13:44.924Z,55.85
2023-04-18T20:16:21.140Z,55.88
2023-04-18T20:19:00.496Z,55.83
2023-04-18T20:21:34.096Z,55.92
2023-04-18T20:24:20.802Z,55.83
2023-04-18T20:26:50.875Z,55.78
2023-04-18T20:29:26.933Z,55.82
2023-04-18T20:32:00.897Z,55.85
2023-04-18T20:34:29.590Z,55.75
2023-04-18T20:36:59.548Z,55.87
2023-04-18T20:39:30.134Z,55.81
2023-04-18T20:42:01.085Z,55.85
2023-04-18T20:44:31.080Z,55.85
2023-04-18T20:47:08.320Z,55.87
2023-04-18T20:49:47.284Z,55.81
2023-04-18T20:52:16.087Z,55.85
2023-04-18T20:54:45.024Z,55.90
2023-04-18T20:57:13.498Z,56.08
2023-04-18T20:59:47.865Z,56.11
2023-04-18T21:02:20.288Z,56.14
2023-04-18T21:04:49.140Z,56.19
2023-04-18T21:07:17.400Z,56.26
2023-04-18T21:09:46.136Z,56.34
2023-04-18T21:12:14.552Z,56.35
2023-04-18T21:14:45.856Z,56.42
2023-04-18T21:17:32.772Z,56.49
2023-04-18T21:20:15.766Z,56.44
2023-04-18T21:22:44.032Z,56.55
2023-04-18T21:25:12.157Z,56.58
2023-04-18T21:27:40.424Z,56.70
2023-04-18T21:30:12.358Z,56.62
2023-04-18T21:32:41.255Z,56.64
2023-04-18T21:35:13.970Z,56.60
2023-04-18T21:37:51.402Z,56.69
2023-04-18T21:40:20.456Z,56.61
2023-04-18T21:42:50.738Z,57.71
2023-04-18T21:45:19.354Z,58.37
2023-04-18T21:47:49.490Z,58.71
2023-04-18T21:50:17.709Z,58.74
2023-04-18T21:52:47.015Z,58.33
2023-04-18T21:55:15.759Z,57.34
2023-04-18T21:57:46.775Z,57.56
2023-04-18T22:00:15.959Z,57.74
2023-04-18T22:02:45.191Z,57.39
2023-04-18T22:05:14.250Z,56.89
2023-04-18T22:07:56.923Z,56.97
2023-04-18T22:10:28.423Z,56.87
2023-04-18T22:13:02.171Z,56.72
2023-04-18T22:15:31.669Z,56.77
2023-04-18T22:18:03.084Z,56.88
2023-04-18T22:20:35.678Z,56.68
2023-04-18T22:23:07.657Z,56.31
2023-04-18T22:25:40.527Z,56.26
2023-04-18T22:28:09.704Z,56.37
2023-04-18T22:30:40.349Z,56.47
2023-04-18T22:33:11.196Z,56.50
2023-04-18T22:35:41.797Z,56.39
2023-04-18T22:38:10.660Z,56.44
2023-04-18T22:40:40.058Z,56.41
2023-04-18T22:43:09.245Z,56.56
2023-04-18T22:45:38.703Z,56.59
2023-04-18T22:48:11.165Z,56.44
2023-04-18T22:50:43.083Z,56.59
2023-04-18T22:53:12.337Z,56.55
2023-04-18T22:55:41.343Z,56.58
2023-04-18T22:58:11.597Z,56.62
2023-04-18T23:00:40.949Z,56.70
2023-04-18T23:03:10.551Z,56.69
2023-04-18T23:05:43.106Z,56.65
2023-04-18T23:08:13.916Z,56.71
2023-04-18T23:10:42.428Z,56.77
2023-04-18T23:13:10.862Z,56.76
2023-04-18T23:15:42.685Z,56.93
2023-04-18T23:18:11.007Z,56.93
2023-04-18T23:20:41.003Z,56.99
2023-04-18T23:23:13.018Z,56.98
2023-04-18T23:25:47.720Z,57.05
2023-04-18T23:28:33.452Z,57.16
2023-04-18T23:31:08.183Z,57.24
2023-04-18T23:33:37.082Z,57.37
2023-04-18T23:36:08.806Z,57.30
2023-04-18T23:38:38.887Z,57.42
2023-04-18T23:41:09.805Z,57.49
2023-04-18T23:43:39.916Z,57.42
2023-04-18T23:46:09.280Z,57.41
2023-04-18T23:48:39.003Z,57.47
2023-04-18T23:51:13.113Z,57.41
2023-04-18T23:53:44.686Z,57.43
2023-04-18T23:56:13.756Z,57.37
2023-04-18T23:58:43.126Z,57.35
